createdAt,value
2023-04-01T00:01:17.996Z,77.87
2023-04-01T00:02:50.237Z,77.90
2023-04-01T00:04:22.545Z,78.23
2023-04-01T00:05:58.493Z,78.54
2023-04-01T00:07:31.040Z,78.65
2023-04-01T00:09:03.165Z,78.59
2023-04-01T00:10:37.994Z,78.79
2023-04-01T00:12:10.114Z,78.88
2023-04-01T00:13:42.846Z,78.90
2023-04-01T00:15:14.975Z,78.87
2023-04-01T00:16:47.161Z,79.12
2023-04-01T00:18:19.535Z,78.93
2023-04-01T00:19:51.725Z,79.36
2023-04-01T00:21:24.232Z,79.29
2023-04-01T00:22:56.769Z,79.05
2023-04-01T00:24:28.979Z,78.98
2023-04-01T00:26:04.741Z,79.15
2023-04-01T00:27:36.828Z,79.27
2023-04-01T00:29:09.330Z,78.92
2023-04-01T00:30:42.009Z,78.68
2023-04-01T00:32:14.195Z,78.37
2023-04-01T00:33:46.257Z,78.24
2023-04-01T00:35:18.414Z,78.26
2023-04-01T00:36:51.439Z,78.20
2023-04-01T00:38:24.163Z,78.29
2023-04-01T00:39:56.608Z,78.58
2023-04-01T00:41:29.577Z,78.78
2023-04-01T00:43:01.835Z,78.69
2023-04-01T00:44:35.839Z,78.67
2023-04-01T00:46:08.026Z,79.11
2023-04-01T00:47:40.224Z,79.65
2023-04-01T00:49:12.424Z,79.72
2023-04-01T00:50:49.337Z,79.57
2023-04-01T00:52:24.738Z,79.17
2023-04-01T00:53:58.186Z,79.12
2023-04-01T00:55:31.031Z,79.07
2023-04-01T00:57:06.914Z,78.88
2023-04-01T00:58:42.907Z,79.10
2023-04-01T01:00:16.813Z,79.27
2023-04-01T01:01:48.992Z,79.43
2023-04-01T01:03:21.278Z,79.81
2023-04-01T01:04:53.726Z,79.79
2023-04-01T01:06:33.142Z,79.68
2023-04-01T01:08:19.759Z,79.54
2023-04-01T01:10:05.308Z,79.41
2023-04-01T01:11:59.218Z,79.00
2023-04-01T01:13:38.108Z,79.01
2023-04-01T01:15:42.282Z,79.08
2023-04-01T01:17:21.889Z,79.47
2023-04-01T01:19:23.880Z,79.05
2023-04-01T01:21:33.980Z,79.00
2023-04-01T01:23:10.837Z,79.18
2023-04-01T01:24:45.911Z,79.29
2023-04-01T01:26:22.438Z,79.39
2023-04-01T01:28:14.036Z,79.65
2023-04-01T01:29:51.988Z,80.01
2023-04-01T01:31:50.375Z,79.80
2023-04-01T01:33:57.912Z,79.82
2023-04-01T01:35:36.327Z,80.03
2023-04-01T01:37:15.441Z,79.75
2023-04-01T01:38:47.998Z,79.75
2023-04-01T01:40:22.547Z,79.88
2023-04-01T01:41:55.754Z,79.82
2023-04-01T01:43:32.345Z,79.73
2023-04-01T01:45:05.853Z,79.59
2023-04-01T01:46:37.771Z,79.98
2023-04-01T01:48:10.895Z,80.05
2023-04-01T01:49:43.844Z,80.16
2023-04-01T01:51:16.328Z,80.33
2023-04-01T01:52:48.532Z,80.37
2023-04-01T01:54:21.025Z,80.30
2023-04-01T01:55:53.514Z,80.20
2023-04-01T01:57:29.410Z,80.17
2023-04-01T01:59:07.003Z,80.30
2023-04-01T02:00:39.513Z,80.59
2023-04-01T02:02:12.423Z,80.46
2023-04-01T02:03:46.980Z,80.35
2023-04-01T02:05:22.988Z,80.15
2023-04-01T02:06:59.865Z,79.99
2023-04-01T02:08:42.863Z,80.08
2023-04-01T02:10:15.478Z,80.29
2023-04-01T02:11:51.728Z,80.34
2023-04-01T02:13:32.847Z,80.22
2023-04-01T02:15:09.599Z,79.99
2023-04-01T02:16:44.875Z,79.53
2023-04-01T02:18:18.128Z,79.56
2023-04-01T02:20:02.824Z,79.51
2023-04-01T02:21:35.805Z,79.65
2023-04-01T02:23:09.371Z,79.27
2023-04-01T02:24:42.210Z,79.07
2023-04-01T02:26:14.590Z,79.00
2023-04-01T02:27:47.349Z,78.96
2023-04-01T02:29:27.043Z,79.49
2023-04-01T02:31:01.941Z,79.50
2023-04-01T02:32:35.924Z,79.94
2023-04-01T02:34:10.478Z,79.73
2023-04-01T02:35:42.773Z,79.74
2023-04-01T02:37:15.550Z,79.90
2023-04-01T02:38:48.405Z,79.95
2023-04-01T02:40:20.777Z,80.03
2023-04-01T02:41:53.180Z,80.07
2023-04-01T02:43:25.473Z,79.88
2023-04-01T02:44:57.617Z,80.15
2023-04-01T02:46:29.748Z,79.95
2023-04-01T02:49:33.675Z,79.59
2023-04-01T02:51:05.884Z,79.19
2023-04-01T02:52:38.492Z,79.06
2023-04-01T02:54:10.741Z,79.01
2023-04-01T02:55:43.115Z,78.99
2023-04-01T02:57:15.268Z,79.02
2023-04-01T02:58:47.827Z,78.68
2023-04-01T03:00:20.148Z,79.13
2023-04-01T03:01:52.389Z,79.20
2023-04-01T03:03:24.537Z,79.33
2023-04-01T03:04:56.655Z,79.26
2023-04-01T03:06:28.782Z,79.66
2023-04-01T03:08:01.073Z,79.98
2023-04-01T03:09:33.173Z,80.10
2023-04-01T03:11:05.995Z,80.17
2023-04-01T03:12:38.405Z,80.07
2023-04-01T03:14:10.589Z,80.03
2023-04-01T03:15:42.775Z,80.18
2023-04-01T03:17:14.969Z,80.29
2023-04-01T03:18:47.276Z,80.15
2023-04-01T03:20:19.411Z,80.04
2023-04-01T03:21:51.513Z,79.97
2023-04-01T03:23:25.594Z,79.89
2023-04-01T03:24:57.690Z,80.22
2023-04-01T03:26:29.943Z,79.98
2023-04-01T03:28:02.531Z,80.12
2023-04-01T03:29:34.656Z,79.81
2023-04-01T03:31:06.928Z,79.48
2023-04-01T03:32:39.186Z,79.38
2023-04-01T03:34:11.424Z,79.34
2023-04-01T03:35:43.614Z,79.18
2023-04-01T03:37:16.011Z,78.79
2023-04-01T03:38:48.253Z,78.79
2023-04-01T03:40:21.068Z,78.79
2023-04-01T03:41:53.166Z,78.91
2023-04-01T03:43:25.244Z,79.04
2023-04-01T03:44:57.410Z,79.29
2023-04-01T03:46:29.689Z,79.07
2023-04-01T03:48:01.785Z,79.12
2023-04-01T03:49:34.798Z,79.00
2023-04-01T03:51:10.066Z,78.83
2023-04-01T03:52:42.254Z,78.61
2023-04-01T03:54:14.382Z,77.64
2023-04-01T03:55:46.657Z,76.34
2023-04-01T03:57:18.809Z,74.35
2023-04-01T03:58:51.093Z,71.11
2023-04-01T04:00:23.360Z,66.89
2023-04-01T04:01:55.685Z,66.06
2023-04-01T04:03:28.428Z,64.92
2023-04-01T04:05:00.735Z,63.39
2023-04-01T04:06:33.865Z,62.51
2023-04-01T04:08:06.166Z,58.62
2023-04-01T04:09:38.308Z,56.66
2023-04-01T04:11:10.750Z,54.94
2023-04-01T04:12:42.899Z,54.62
2023-04-01T04:14:15.000Z,54.22
2023-04-01T04:15:47.107Z,53.18
2023-04-01T04:17:19.219Z,52.90
2023-04-01T04:18:52.507Z,53.56
2023-04-01T04:20:24.615Z,51.21
2023-04-01T04:21:56.674Z,51.25
2023-04-01T04:23:31.110Z,51.39
2023-04-01T04:25:03.336Z,50.99
2023-04-01T04:26:35.647Z,51.05
2023-04-01T04:28:07.764Z,50.83
2023-04-01T04:29:40.141Z,51.42
2023-04-01T04:31:12.585Z,51.71
2023-04-01T04:32:44.805Z,52.34
2023-04-01T04:34:16.960Z,52.28
2023-04-01T04:35:49.547Z,53.05
2023-04-01T04:37:21.715Z,52.65
2023-04-01T04:38:53.861Z,52.43
2023-04-01T04:40:26.060Z,52.63
2023-04-01T04:41:58.175Z,53.25
2023-04-01T04:43:30.387Z,53.48
2023-04-01T04:45:02.490Z,54.26
2023-04-01T04:46:34.859Z,55.00
2023-04-01T04:48:19.833Z,56.22
2023-04-01T04:49:52.392Z,57.38
2023-04-01T04:51:25.868Z,58.27
2023-04-01T04:52:57.973Z,58.71
2023-04-01T04:54:30.870Z,59.77
2023-04-01T04:56:03.069Z,60.35
2023-04-01T04:57:35.211Z,61.62
2023-04-01T04:59:08.015Z,62.49
2023-04-01T05:00:40.249Z,62.63
2023-04-01T05:02:13.003Z,63.28
2023-04-01T05:03:45.918Z,63.81
2023-04-01T05:05:18.316Z,64.56
2023-04-01T05:06:50.797Z,64.07
2023-04-01T05:08:22.905Z,64.61
2023-04-01T05:09:55.072Z,65.28
2023-04-01T05:11:27.741Z,65.86
2023-04-01T05:13:00.308Z,65.69
2023-04-01T05:14:32.477Z,67.17
2023-04-01T05:16:05.005Z,67.81
2023-04-01T05:17:37.175Z,70.29
2023-04-01T05:19:09.441Z,71.35
2023-04-01T05:20:47.965Z,71.17
2023-04-01T05:22:20.153Z,70.65
2023-04-01T05:23:52.273Z,71.18
2023-04-01T05:25:24.512Z,72.34
2023-04-01T05:26:57.508Z,72.07
2023-04-01T05:28:29.653Z,72.66
2023-04-01T05:30:01.786Z,72.23
2023-04-01T05:31:33.938Z,72.99
2023-04-01T05:33:09.235Z,73.40
2023-04-01T05:34:41.367Z,73.53
2023-04-01T05:36:18.527Z,73.79
2023-04-01T05:37:50.771Z,73.72
2023-04-01T05:39:22.991Z,74.14
2023-04-01T05:41:01.094Z,74.16
2023-04-01T05:42:33.522Z,74.63
2023-04-01T05:44:06.730Z,74.21
2023-04-01T05:47:10.831Z,74.93
2023-04-01T05:48:43.005Z,75.39
2023-04-01T05:50:15.199Z,75.72
2023-04-01T05:51:47.351Z,76.23
2023-04-01T05:53:19.646Z,76.11
2023-04-01T05:54:51.877Z,76.29
2023-04-01T05:56:24.103Z,75.52
2023-04-01T05:57:56.356Z,75.25
2023-04-01T05:59:28.576Z,75.11
2023-04-01T06:01:10.099Z,74.88
2023-04-01T06:02:45.112Z,74.89
2023-04-01T06:04:19.044Z,74.56
2023-04-01T06:05:51.569Z,74.55
2023-04-01T06:07:23.777Z,74.11
2023-04-01T06:08:58.113Z,74.03
2023-04-01T06:11:01.081Z,73.99
2023-04-01T06:12:44.656Z,74.05
2023-04-01T06:14:32.840Z,74.29
2023-04-01T06:16:33.149Z,74.49
2023-04-01T06:18:36.265Z,74.28
2023-04-01T06:20:40.915Z,74.54
2023-04-01T06:22:22.157Z,76.11
2023-04-01T06:24:33.284Z,76.11
2023-04-01T06:26:23.316Z,76.87
2023-04-01T06:28:23.558Z,78.45
2023-04-01T06:30:21.268Z,78.63
2023-04-01T06:32:24.123Z,78.66
2023-04-01T06:34:03.108Z,78.37
2023-04-01T06:35:54.212Z,78.51
2023-04-01T06:38:07.218Z,78.20
2023-04-01T06:39:48.072Z,77.86
2023-04-01T06:41:26.611Z,77.38
2023-04-01T06:43:11.391Z,77.45
2023-04-01T06:44:53.214Z,78.23
2023-04-01T06:46:46.916Z,79.06
2023-04-01T06:48:37.361Z,79.03
2023-04-01T06:50:30.101Z,78.70
2023-04-01T06:52:24.943Z,78.42
2023-04-01T06:54:02.286Z,78.39
2023-04-01T06:55:39.171Z,78.05
2023-04-01T06:57:34.612Z,77.58
2023-04-01T06:59:19.559Z,77.37
2023-04-01T07:01:14.325Z,77.21
2023-04-01T07:02:59.558Z,77.26
2023-04-01T07:04:33.963Z,77.34
2023-04-01T07:06:09.796Z,77.82
2023-04-01T07:07:47.942Z,77.79
2023-04-01T07:09:23.512Z,77.86
2023-04-01T07:11:03.505Z,77.50
2023-04-01T07:12:44.935Z,77.48
2023-04-01T07:14:27.913Z,77.22
2023-04-01T07:16:05.758Z,78.27
2023-04-01T07:17:38.373Z,78.81
2023-04-01T07:19:16.575Z,78.76
2023-04-01T07:20:49.522Z,79.00
2023-04-01T07:22:31.848Z,80.29
2023-04-01T07:24:12.151Z,79.61
2023-04-01T07:25:49.784Z,79.48
2023-04-01T07:27:21.928Z,79.71
2023-04-01T07:30:31.896Z,79.43
2023-04-01T07:32:18.833Z,80.21
2023-04-01T07:34:15.510Z,79.71
2023-04-01T07:36:03.320Z,79.16
2023-04-01T07:38:10.865Z,78.86
2023-04-01T07:40:26.394Z,78.98
2023-04-01T07:42:29.001Z,79.50
2023-04-01T07:44:06.619Z,79.52
2023-04-01T07:45:52.801Z,79.50
2023-04-01T07:47:41.487Z,78.74
2023-04-01T07:49:58.437Z,78.25
2023-04-01T07:51:37.779Z,77.79
2023-04-01T07:53:41.861Z,77.56
2023-04-01T07:55:26.077Z,77.55
2023-04-01T07:57:07.553Z,77.39
2023-04-01T07:59:04.448Z,77.11
2023-04-01T08:00:42.322Z,76.57
2023-04-01T08:02:43.673Z,77.45
2023-04-01T08:04:24.892Z,77.98
2023-04-01T08:06:36.032Z,77.28
2023-04-01T08:08:27.581Z,77.04
2023-04-01T08:10:14.126Z,76.96
2023-04-01T08:11:59.871Z,76.96
2023-04-01T08:13:59.296Z,77.13
2023-04-01T08:15:52.365Z,77.78
2023-04-01T08:17:31.036Z,77.41
2023-04-01T08:19:32.573Z,76.73
2023-04-01T08:21:09.186Z,76.75
2023-04-01T08:22:48.182Z,76.44
2023-04-01T08:24:47.172Z,76.80
2023-04-01T08:26:41.302Z,78.33
2023-04-01T08:28:23.476Z,77.46
2023-04-01T08:30:04.742Z,78.47
2023-04-01T08:31:54.615Z,78.29
2023-04-01T08:33:29.364Z,77.30
2023-04-01T08:35:37.651Z,76.97
2023-04-01T08:37:18.969Z,76.34
2023-04-01T08:38:58.065Z,75.99
2023-04-01T08:41:01.691Z,75.90
2023-04-01T08:42:34.469Z,75.80
2023-04-01T08:44:25.207Z,75.08
2023-04-01T08:46:42.441Z,74.93
2023-04-01T08:48:34.377Z,74.57
2023-04-01T08:50:26.802Z,74.35
2023-04-01T08:52:01.778Z,73.59
2023-04-01T08:53:58.213Z,73.45
2023-04-01T08:55:42.667Z,73.62
2023-04-01T08:57:31.016Z,73.61
2023-04-01T08:59:47.295Z,74.24
2023-04-01T09:01:54.836Z,73.73
2023-04-01T09:03:45.521Z,73.60
2023-04-01T09:05:45.684Z,73.53
2023-04-01T09:07:26.756Z,73.89
2023-04-01T09:09:27.143Z,73.59
2023-04-01T09:11:13.358Z,73.51
2023-04-01T09:12:45.391Z,72.58
2023-04-01T09:14:36.381Z,72.30
2023-04-01T09:17:00.857Z,72.06
2023-04-01T09:18:51.210Z,71.80
2023-04-01T09:20:34.624Z,72.37
2023-04-01T09:22:12.469Z,72.12
2023-04-01T09:24:11.870Z,71.48
2023-04-01T09:25:55.382Z,71.15
2023-04-01T09:27:30.084Z,70.70
2023-04-01T09:29:19.640Z,70.05
2023-04-01T09:31:18.679Z,69.59
2023-04-01T09:33:15.489Z,69.34
2023-04-01T09:35:24.988Z,68.78
2023-04-01T09:37:19.396Z,68.53
2023-04-01T09:39:12.004Z,68.20
2023-04-01T09:41:09.240Z,66.22
2023-04-01T09:43:02.951Z,65.98
2023-04-01T09:45:02.031Z,62.89
2023-04-01T09:46:34.180Z,63.91
2023-04-01T09:48:09.436Z,63.65
2023-04-01T09:50:07.083Z,63.67
2023-04-01T09:51:53.342Z,62.60
2023-04-01T09:53:50.278Z,63.24
2023-04-01T09:55:31.265Z,62.19
2023-04-01T09:57:09.392Z,61.75
2023-04-01T09:58:53.531Z,61.28
2023-04-01T10:00:44.616Z,58.44
2023-04-01T10:02:44.360Z,58.43
2023-04-01T10:04:53.824Z,58.76
2023-04-01T10:06:57.977Z,58.08
2023-04-01T10:08:53.818Z,57.71
2023-04-01T10:10:31.701Z,59.00
2023-04-01T10:12:03.839Z,58.81
2023-04-01T10:14:13.418Z,58.90
2023-04-01T10:16:09.164Z,54.64
2023-04-01T10:18:21.441Z,55.45
2023-04-01T10:20:15.214Z,55.04
2023-04-01T10:23:56.039Z,55.78
2023-04-01T10:25:46.926Z,56.21
2023-04-01T10:27:56.688Z,56.41
2023-04-01T10:29:33.300Z,60.64
2023-04-01T10:31:21.726Z,61.19
2023-04-01T10:33:17.234Z,59.18
2023-04-01T10:35:04.146Z,58.83
2023-04-01T10:36:48.479Z,59.86
2023-04-01T10:38:44.835Z,60.46
2023-04-01T10:40:47.795Z,62.83
2023-04-01T10:42:30.326Z,60.25
2023-04-01T10:44:39.823Z,59.06
2023-04-01T10:46:29.872Z,58.91
2023-04-01T10:48:26.461Z,59.72
2023-04-01T10:50:04.437Z,59.97
2023-04-01T10:52:23.269Z,58.68
2023-04-01T10:54:32.879Z,58.58
2023-04-01T10:56:25.167Z,58.34
2023-04-01T10:58:43.370Z,60.15
2023-04-01T11:00:27.273Z,58.66
2023-04-01T11:02:24.104Z,58.16
2023-04-01T11:04:33.803Z,57.96
2023-04-01T11:06:29.643Z,56.84
2023-04-01T11:08:33.084Z,57.97
2023-04-01T11:10:42.813Z,57.02
2023-04-01T11:12:45.693Z,57.67
2023-04-01T11:14:36.403Z,56.46
2023-04-01T11:16:45.901Z,55.86
2023-04-01T11:19:03.162Z,56.48
2023-04-01T11:20:56.299Z,55.67
2023-04-01T11:22:31.272Z,56.57
2023-04-01T11:24:32.978Z,56.67
2023-04-01T11:26:16.903Z,57.47
2023-04-01T11:28:06.977Z,58.04
2023-04-01T11:30:09.586Z,58.43
2023-04-01T11:31:59.808Z,57.64
2023-04-01T11:33:52.497Z,57.44
2023-04-01T11:35:27.654Z,57.90
2023-04-01T11:37:21.478Z,57.77
2023-04-01T11:39:02.682Z,57.57
2023-04-01T11:41:00.706Z,58.89
2023-04-01T11:42:53.175Z,56.39
2023-04-01T11:44:28.681Z,56.98
2023-04-01T11:46:16.683Z,56.64
2023-04-01T11:47:58.560Z,57.93
2023-04-01T11:49:49.261Z,57.48
2023-04-01T11:51:46.072Z,55.98
2023-04-01T11:53:33.183Z,57.31
2023-04-01T11:55:29.466Z,56.31
2023-04-01T11:57:39.159Z,57.31
2023-04-01T11:59:31.569Z,57.63
2023-04-01T12:01:03.805Z,56.74
2023-04-01T12:02:50.527Z,58.69
2023-04-01T12:04:37.223Z,56.86
2023-04-01T12:06:27.981Z,57.38
2023-04-01T12:08:15.285Z,57.41
2023-04-01T12:10:26.314Z,58.06
2023-04-01T12:12:33.873Z,58.62
2023-04-01T12:14:20.707Z,58.07
2023-04-01T12:16:24.397Z,58.13
2023-04-01T12:18:19.450Z,58.54
2023-04-01T12:20:12.762Z,58.60
2023-04-01T12:21:54.218Z,59.04
2023-04-01T12:23:48.864Z,58.82
2023-04-01T12:25:39.425Z,58.81
2023-04-01T12:27:30.494Z,58.86
2023-04-01T12:29:09.214Z,58.99
2023-04-01T12:30:51.970Z,59.54
2023-04-01T12:32:36.841Z,60.53
2023-04-01T12:34:46.894Z,60.27
2023-04-01T12:36:49.947Z,60.05
2023-04-01T12:38:49.536Z,60.88
2023-04-01T12:40:38.891Z,60.65
2023-04-01T12:42:33.025Z,60.60
2023-04-01T12:44:08.374Z,61.22
2023-04-01T12:46:18.392Z,61.49
2023-04-01T12:48:05.672Z,62.21
2023-04-01T12:49:49.559Z,62.54
2023-04-01T12:51:41.937Z,62.66
2023-04-01T12:53:44.922Z,63.79
2023-04-01T12:55:28.793Z,64.32
2023-04-01T12:57:07.633Z,65.00
2023-04-01T12:59:04.116Z,67.15
2023-04-01T13:01:11.777Z,67.73
2023-04-01T13:03:20.510Z,68.73
2023-04-01T13:05:07.497Z,69.66
2023-04-01T13:06:45.449Z,72.19
2023-04-01T13:09:18.277Z,74.23
2023-04-01T13:11:19.040Z,74.97
2023-04-01T13:14:57.899Z,80.58
2023-04-01T13:18:37.844Z,84.00
2023-04-01T13:20:22.432Z,83.96
2023-04-01T13:22:08.846Z,85.66
2023-04-01T13:24:08.031Z,86.23
2023-04-01T13:26:07.050Z,86.42
2023-04-01T13:27:46.493Z,86.32
2023-04-01T13:29:23.752Z,86.46
2023-04-01T13:31:20.710Z,86.77
2023-04-01T13:33:42.394Z,85.91
2023-04-01T13:35:23.789Z,86.09
2023-04-01T13:37:20.116Z,86.20
2023-04-01T13:38:56.915Z,86.99
2023-04-01T13:41:02.290Z,88.03
2023-04-01T13:42:39.832Z,87.92
2023-04-01T13:44:16.180Z,87.93
2023-04-01T13:46:19.887Z,87.73
2023-04-01T13:48:05.931Z,87.82
2023-04-01T13:50:03.150Z,87.53
2023-04-01T13:53:34.029Z,88.02
2023-04-01T13:55:21.382Z,88.33
2023-04-01T14:00:55.170Z,88.09
2023-04-01T14:03:05.104Z,87.87
2023-04-01T14:04:51.671Z,88.16
2023-04-01T14:06:55.092Z,88.77
2023-04-01T14:09:01.229Z,89.63
2023-04-01T14:10:51.505Z,89.45
2023-04-01T14:12:33.489Z,89.41
2023-04-01T14:14:17.544Z,89.66
2023-04-01T14:15:58.852Z,89.98
2023-04-01T14:17:57.874Z,89.78
2023-04-01T14:19:47.907Z,89.59
2023-04-01T14:21:53.886Z,90.16
2023-04-01T14:23:33.541Z,90.83
2023-04-01T14:25:43.240Z,90.93
2023-04-01T14:27:21.074Z,91.48
2023-04-01T14:29:27.101Z,92.06
2023-04-01T14:31:18.445Z,92.52
2023-04-01T14:33:09.642Z,92.76
2023-04-01T14:34:51.495Z,91.89
2023-04-01T14:37:01.048Z,92.30
2023-04-01T14:39:24.505Z,92.33
2023-04-01T14:41:17.470Z,91.01
2023-04-01T14:43:07.745Z,89.77
2023-04-01T14:44:47.498Z,89.14
2023-04-01T14:46:48.097Z,89.46
2023-04-01T14:48:38.056Z,89.15
2023-04-01T14:50:22.207Z,88.35
2023-04-01T14:51:54.907Z,87.91
2023-04-01T14:53:29.100Z,86.63
2023-04-01T15:26:44.862Z,82.04
2023-04-01T15:28:55.731Z,82.93
2023-04-01T15:31:05.188Z,83.26
2023-04-01T15:32:59.138Z,82.89
2023-04-01T15:34:42.184Z,82.23
2023-04-01T15:36:52.847Z,81.65
2023-04-01T15:38:52.626Z,81.63
2023-04-01T15:40:30.112Z,82.47
2023-04-01T15:42:20.464Z,82.54
2023-04-01T15:43:55.422Z,81.84
2023-04-01T15:45:36.526Z,81.81
2023-04-01T15:47:26.049Z,81.50
2023-04-01T15:49:11.045Z,81.79
2023-04-01T15:50:51.488Z,81.53
2023-04-01T15:52:23.789Z,81.25
2023-04-01T15:54:28.065Z,80.85
2023-04-01T15:56:29.937Z,80.97
2023-04-01T15:58:04.737Z,81.11
2023-04-01T15:59:52.639Z,81.43
2023-04-01T16:02:02.033Z,81.73
2023-04-01T16:03:57.305Z,81.99
2023-04-01T16:05:35.427Z,82.17
2023-04-01T16:07:12.602Z,82.36
2023-04-01T16:09:04.300Z,82.40
2023-04-01T16:11:11.694Z,82.59
2023-04-01T16:13:01.500Z,82.71
2023-04-01T16:14:45.953Z,83.17
2023-04-01T16:16:36.896Z,83.15
2023-04-01T16:18:12.074Z,83.32
2023-04-01T16:19:54.734Z,83.00
2023-04-01T16:23:30.853Z,84.20
2023-04-01T16:25:39.894Z,84.90
2023-04-01T16:27:21.051Z,85.83
2023-04-01T16:28:56.606Z,86.16
2023-04-01T16:30:37.691Z,85.84
2023-04-01T16:32:30.032Z,85.59
2023-04-01T16:34:44.285Z,81.83
2023-04-01T16:36:37.929Z,81.55
2023-04-01T16:38:18.744Z,81.58
2023-04-01T16:40:21.797Z,81.32
2023-04-01T16:42:10.510Z,81.48
2023-04-01T16:43:47.730Z,82.50
2023-04-01T16:45:35.289Z,83.22
2023-04-01T16:47:12.092Z,83.66
2023-04-01T16:49:02.241Z,84.04
2023-04-01T16:51:11.341Z,84.37
2023-04-01T16:53:03.515Z,85.00
2023-04-01T16:54:50.296Z,85.51
2023-04-01T16:56:27.134Z,85.25
2023-04-01T16:58:01.452Z,85.44
2023-04-01T17:00:06.594Z,85.29
2023-04-01T17:01:58.858Z,85.47
2023-04-01T17:05:17.095Z,85.69
2023-04-01T17:06:56.452Z,86.29
2023-04-01T17:08:40.854Z,86.39
2023-04-01T17:10:24.258Z,87.28
2023-04-01T17:12:05.838Z,87.81
2023-04-01T17:14:08.212Z,87.96
2023-04-01T17:15:56.021Z,88.50
2023-04-01T17:17:41.758Z,88.46
2023-04-01T17:19:29.944Z,88.79
2023-04-01T17:21:04.027Z,89.25
2023-04-01T17:22:46.278Z,89.68
2023-04-01T17:24:44.221Z,89.66
2023-04-01T17:26:31.044Z,89.97
2023-04-01T17:28:16.893Z,90.14
2023-04-01T17:30:01.420Z,90.63
2023-04-01T17:31:45.899Z,90.84
2023-04-01T17:33:37.996Z,90.90
2023-04-01T17:35:13.204Z,90.94
2023-04-01T17:36:52.697Z,90.78
2023-04-01T17:40:13.867Z,90.59
2023-04-01T17:42:01.790Z,90.79
2023-04-01T17:43:51.444Z,90.70
2023-04-01T17:45:35.148Z,90.73
2023-04-01T17:47:27.135Z,90.43
2023-04-01T17:49:01.926Z,90.50
2023-04-01T17:50:55.023Z,90.55
2023-04-01T17:52:44.973Z,90.60
2023-04-01T17:54:38.880Z,90.50
2023-04-01T17:56:44.505Z,90.21
2023-04-01T17:58:28.271Z,90.35
2023-04-01T18:00:26.310Z,90.32
2023-04-01T18:02:27.118Z,90.45
2023-04-01T18:04:30.257Z,90.20
2023-04-01T18:06:06.600Z,90.10
2023-04-01T18:07:50.868Z,89.66
2023-04-01T18:09:47.743Z,90.12
2023-04-01T18:11:41.247Z,90.61
2023-04-01T18:13:41.209Z,90.54
2023-04-01T18:15:16.019Z,90.82
2023-04-01T18:17:12.968Z,90.77
2023-04-01T18:18:54.754Z,90.65
2023-04-01T18:20:48.220Z,90.66
2023-04-01T18:22:30.145Z,90.16
2023-04-01T18:24:28.473Z,90.20
2023-04-01T18:26:10.339Z,90.33
2023-04-01T18:27:46.345Z,90.39
2023-04-01T18:29:23.533Z,90.48
2023-04-01T18:31:11.375Z,90.35
2023-04-01T18:32:54.905Z,90.23
2023-04-01T18:35:01.800Z,90.46
2023-04-01T18:36:53.435Z,90.16
2023-04-01T18:38:41.884Z,90.00
2023-04-01T18:40:17.237Z,89.67
2023-04-01T18:41:59.023Z,89.13
2023-04-01T18:45:24.819Z,89.60
2023-04-01T18:47:04.916Z,89.82
2023-04-01T18:48:58.122Z,90.02
2023-04-01T18:50:50.162Z,89.68
2023-04-01T18:52:22.282Z,89.58
2023-04-01T18:54:07.012Z,89.53
2023-04-01T18:56:07.542Z,89.62
2023-04-01T18:57:57.962Z,89.02
2023-04-01T18:59:38.816Z,89.02
2023-04-01T19:01:30.377Z,89.22
2023-04-01T19:03:10.280Z,89.36
2023-04-01T19:05:09.813Z,90.00
2023-04-01T19:06:53.374Z,90.45
2023-04-01T19:08:29.939Z,90.72
2023-04-01T19:10:13.312Z,90.68
2023-04-01T19:12:07.877Z,90.62
2023-04-01T19:13:52.528Z,90.64
2023-04-01T19:16:02.035Z,90.96
2023-04-01T19:17:44.364Z,91.06
2023-04-01T19:19:37.891Z,90.60
2023-04-01T19:21:20.589Z,90.38
2023-04-01T19:23:07.733Z,90.74
2023-04-01T19:24:56.286Z,90.62
2023-04-01T19:26:30.707Z,90.79
2023-04-01T19:28:22.655Z,90.92
2023-04-01T19:30:07.739Z,91.02
2023-04-01T19:31:52.708Z,91.30
2023-04-01T19:33:33.763Z,91.64
2023-04-01T19:35:28.098Z,91.86
2023-04-01T19:37:04.192Z,91.56
2023-04-01T19:38:40.693Z,91.68
2023-04-01T19:40:21.896Z,91.83
2023-04-01T19:42:09.251Z,91.86
2023-04-01T19:43:50.996Z,92.06
2023-04-01T19:45:35.217Z,91.96
2023-04-01T19:48:50.234Z,92.56
2023-04-01T19:50:51.980Z,92.56
2023-04-01T19:52:41.560Z,92.68
2023-04-01T19:54:22.650Z,92.73
2023-04-01T19:56:03.864Z,92.82
2023-04-01T19:57:53.974Z,92.44
2023-04-01T19:59:44.007Z,92.54
2023-04-01T20:01:34.732Z,92.47
2023-04-01T20:03:41.782Z,92.72
2023-04-01T20:05:36.737Z,92.86
2023-04-01T20:07:21.593Z,93.11
2023-04-01T20:09:22.852Z,93.15
2023-04-01T20:10:58.113Z,93.15
2023-04-01T20:13:09.183Z,92.77
2023-04-01T20:14:53.473Z,92.72
2023-04-01T20:16:50.923Z,93.00
2023-04-01T20:18:50.141Z,92.85
2023-04-01T20:20:25.981Z,92.99
2023-04-01T20:24:11.510Z,92.79
2023-04-01T20:26:08.104Z,92.76
2023-04-01T20:27:47.898Z,92.57
2023-04-01T20:29:39.744Z,92.44
2023-04-01T20:31:24.353Z,92.81
2023-04-01T20:33:27.825Z,92.65
2023-04-01T20:35:45.207Z,92.59
2023-04-01T20:37:52.555Z,92.86
2023-04-01T20:40:04.592Z,92.64
2023-04-01T20:41:50.902Z,92.53
2023-04-01T20:43:48.096Z,92.47
2023-04-01T20:45:58.403Z,92.57
2023-04-01T20:47:54.933Z,92.53
2023-04-01T20:49:50.427Z,92.56
2023-04-01T20:51:34.664Z,92.39
2023-04-01T20:53:22.706Z,92.37
2023-04-01T20:55:21.512Z,92.42
2023-04-01T20:57:15.401Z,92.83
2023-04-01T20:58:59.784Z,93.04
2023-04-01T21:01:08.481Z,93.17
2023-04-01T21:02:49.283Z,93.31
2023-04-01T21:04:39.521Z,93.40
2023-04-01T21:06:18.467Z,93.71
2023-04-01T21:08:05.812Z,93.73
2023-04-01T21:09:46.774Z,93.88
2023-04-01T21:11:39.981Z,93.81
2023-04-01T21:13:38.253Z,93.80
2023-04-01T21:15:24.038Z,93.62
2023-04-01T21:17:34.553Z,93.45
2023-04-01T21:19:12.504Z,93.29
2023-04-01T21:20:48.687Z,93.72
2023-04-01T21:22:36.011Z,93.45
2023-04-01T21:24:13.885Z,93.84
2023-04-01T21:27:21.808Z,94.01
2023-04-01T21:29:15.416Z,93.85
2023-04-01T21:31:46.374Z,93.61
2023-04-01T21:33:37.256Z,93.63
2023-04-01T21:35:24.289Z,93.74
2023-04-01T21:37:14.588Z,93.51
2023-04-01T21:38:59.190Z,93.68
2023-04-01T21:40:51.906Z,93.62
2023-04-01T21:42:29.943Z,93.42
2023-04-01T21:44:31.916Z,93.28
2023-04-01T21:47:03.409Z,92.87
2023-04-01T21:49:06.217Z,92.82
2023-04-01T21:50:56.360Z,92.72
2023-04-01T21:53:01.508Z,92.93
2023-04-01T21:54:48.569Z,92.88
2023-04-01T21:56:32.508Z,92.75
2023-04-01T21:58:10.275Z,92.67
2023-04-01T21:59:48.335Z,92.47
2023-04-01T22:01:35.565Z,92.51
2023-04-01T22:03:27.204Z,92.61
2023-04-01T22:05:12.843Z,92.59
2023-04-01T22:06:57.587Z,92.58
2023-04-01T22:08:49.967Z,92.70
2023-04-01T22:10:34.947Z,93.02
2023-04-01T22:12:25.202Z,93.13
2023-04-01T22:14:22.860Z,93.45
2023-04-01T22:16:23.438Z,93.29
2023-04-01T22:18:38.610Z,93.25
2023-04-01T22:20:20.840Z,93.57
2023-04-01T22:22:05.073Z,93.39
2023-04-01T22:23:49.474Z,93.14
2023-04-01T22:25:30.276Z,93.29
2023-04-01T22:27:05.265Z,93.07
2023-04-01T22:28:43.539Z,92.95
2023-04-01T22:30:31.833Z,92.89
2023-04-01T22:32:12.654Z,92.84
2023-04-01T22:33:59.745Z,92.69
2023-04-01T22:35:53.783Z,92.85
2023-04-01T22:38:09.064Z,92.83
2023-04-01T22:40:10.205Z,93.04
2023-04-01T22:42:08.241Z,93.15
2023-04-01T22:43:44.879Z,92.92
2023-04-01T22:45:32.699Z,92.74
2023-04-01T22:47:27.668Z,92.94
2023-04-01T22:49:18.362Z,92.42
2023-04-01T22:51:12.555Z,91.97
2023-04-01T22:52:47.247Z,91.60
2023-04-01T22:54:33.618Z,90.94
2023-04-01T22:56:11.446Z,90.31
2023-04-01T22:57:53.632Z,89.72
2023-04-01T22:59:51.211Z,89.48
2023-04-01T23:01:29.070Z,88.61
2023-04-01T23:03:20.882Z,88.54
2023-04-01T23:04:57.606Z,89.23
2023-04-01T23:06:36.724Z,89.26
2023-04-01T23:08:42.430Z,89.62
2023-04-01T23:10:24.817Z,89.50
2023-04-01T23:12:08.849Z,89.55
2023-04-01T23:13:49.686Z,89.80
2023-04-01T23:15:21.992Z,89.84
2023-04-01T23:17:02.685Z,89.95
2023-04-01T23:18:59.661Z,90.01
2023-04-01T23:21:03.169Z,89.57
2023-04-01T23:22:40.801Z,89.78
2023-04-01T23:26:39.484Z,90.30
2023-04-01T23:28:26.771Z,90.37
2023-04-01T23:29:58.991Z,89.86
2023-04-01T23:31:40.601Z,89.72
2023-04-01T23:33:12.904Z,89.75
2023-04-01T23:34:53.445Z,89.86
2023-04-01T23:36:25.917Z,89.68
2023-04-01T23:37:58.087Z,89.57
2023-04-01T23:39:34.304Z,89.65